Time;durP1;ratioP1;P1;durP2;ratioP2;P2;SDS_P1;SDS_P2;PMS_P1;PMS_P2;Temp;Humidity;BMP_temperature;BMP_pressure;BME280_temperature;BME280_humidity;BME280_pressure;Samples;Min_cycle;Max_cycle;Signal;HPM_P1;HPM_P2
2021/10/15 05:02:41;;;;;;;0.28;0.20;;;;;;;5.13;100.00;95173.50;4994199;23;20116;-76
2021/10/15 05:05:10;;;;;;;0.35;0.32;;;;;;;5.18;100.00;95175.66;4971990;28;20121;-77
2021/10/15 05:07:36;;;;;;;0.30;0.30;;;;;;;5.13;100.00;95165.00;4956504;28;20026;-77
2021/10/15 05:10:02;;;;;;;0.28;0.20;;;;;;;5.27;100.00;95154.31;4956862;28;20081;-77
2021/10/15 05:12:28;;;;;;;0.25;0.15;;;;;;;5.39;100.00;95168.69;4972140;28;20034;-77
2021/10/15 05:14:54;;;;;;;0.10;0.10;;;;;;;5.25;100.00;95157.03;4973155;28;20026;-77
2021/10/15 05:17:20;;;;;;;0.50;0.40;;;;;;;5.14;100.00;95139.19;4924146;28;20034;-77
2021/10/15 05:19:46;;;;;;;0.17;0.10;;;;;;;5.16;100.00;95136.50;4947541;28;20027;-79
2021/10/15 05:22:11;;;;;;;0.20;0.20;;;;;;;5.11;100.00;95156.59;4937358;29;20116;-76
2021/10/15 05:24:37;;;;;;;0.20;0.10;;;;;;;5.12;100.00;95161.63;4933441;29;20086;-76
2021/10/15 05:27:02;;;;;;;2.65;0.77;;;;;;;5.41;100.00;95168.53;4962907;28;20122;-78
2021/10/15 05:29:28;;;;;;;0.20;0.20;;;;;;;5.41;100.00;95150.56;4918970;28;20038;-76
2021/10/15 05:31:53;;;;;;;0.20;0.20;;;;;;;5.21;100.00;95155.69;4969259;28;20422;-77
2021/10/15 05:34:19;;;;;;;0.28;0.20;;;;;;;5.16;100.00;95173.25;4937803;28;20547;-77
2021/10/15 05:36:44;;;;;;;2.00;0.20;;;;;;;4.95;100.00;95141.72;4972037;28;20027;-78
2021/10/15 05:39:09;;;;;;;1.13;0.90;;;;;;;5.08;100.00;95160.25;4954771;28;20491;-77
2021/10/15 05:41:35;;;;;;;3.00;2.70;;;;;;;5.08;100.00;95138.91;4968293;28;20027;-78
2021/10/15 05:44:00;;;;;;;2.17;0.40;;;;;;;5.18;100.00;95161.06;4936225;28;20039;-78
2021/10/15 05:46:26;;;;;;;0.20;0.10;;;;;;;5.11;100.00;95167.69;4938944;28;20062;-79
2021/10/15 05:48:52;;;;;;;1.15;0.22;;;;;;;5.07;100.00;95157.81;4921427;28;20500;-78
2021/10/15 05:51:17;;;;;;;0.10;0.10;;;;;;;5.05;100.00;95165.66;4920441;28;20042;-78
2021/10/15 05:53:44;;;;;;;1.75;0.30;;;;;;;5.19;100.00;95185.81;4919997;28;20058;-77
2021/10/15 05:58:57;;;;;;;5.72;5.32;;;;;;;5.44;100.00;95175.97;4954727;29;20047;-78
2021/10/15 06:01:25;;;;;;;6.03;5.63;;;;;;;4.61;100.00;95064.28;5024528;23;20090;-80
2021/10/15 06:07:34;;;;;;;3.40;1.15;;;;;;;4.98;100.00;95094.44;5382896;23;20086;-80
2021/10/15 06:17:08;;;;;;;3.30;3.00;;;;;;;4.51;100.00;95031.88;5571471;23;20062;-80
2021/10/15 06:19:44;;;;;;;6.10;5.32;;;;;;;4.81;100.00;95066.91;4963761;28;20031;-82
2021/10/15 06:22:09;;;;;;;3.80;3.15;;;;;;;4.44;100.00;95025.66;4960969;28;20034;-79
2021/10/15 06:24:35;;;;;;;2.15;1.95;;;;;;;4.95;100.00;95135.75;4959600;28;20053;-78
2021/10/15 06:27:01;;;;;;;2.65;2.45;;;;;;;5.53;100.00;95190.56;4935657;28;20027;-78
2021/10/15 06:29:26;;;;;;;1.92;1.23;;;;;;;5.40;100.00;95160.00;4953677;28;20041;-77
2021/10/15 06:31:51;;;;;;;30.92;9.98;;;;;;;5.41;100.00;95171.91;4945525;28;20078;-77
2021/10/15 06:34:18;;;;;;;37.35;13.80;;;;;;;5.60;100.00;95171.94;4912996;28;20031;-77
2021/10/15 06:36:45;;;;;;;13.50;5.57;;;;;;;5.44;100.00;95158.00;4924411;28;20031;-77
2021/10/15 06:39:10;;;;;;;1.58;0.30;;;;;;;5.31;100.00;95178.78;4926004;28;20122;-77
2021/10/15 06:41:36;;;;;;;1.00;0.50;;;;;;;5.49;100.00;95192.59;4935380;28;20066;-79
2021/10/15 06:44:01;;;;;;;1.40;0.70;;;;;;;5.21;100.00;95165.13;4935279;28;20015;-78
2021/10/15 06:46:27;;;;;;;0.88;0.75;;;;;;;5.35;100.00;95184.47;4931439;28;20027;-78
2021/10/15 06:48:52;;;;;;;0.25;0.25;;;;;;;5.44;100.00;95187.06;4944216;28;20031;-78
2021/10/15 06:51:18;;;;;;;0.70;0.70;;;;;;;5.33;100.00;95169.19;4934885;29;20019;-77
2021/10/15 06:53:45;;;;;;;0.80;0.80;;;;;;;5.66;100.00;95191.13;4919620;29;20032;-78
2021/10/15 06:56:10;;;;;;;0.80;0.65;;;;;;;5.99;100.00;95189.91;4940757;28;20055;-78
2021/10/15 06:58:36;;;;;;;0.17;0.17;;;;;;;5.61;100.00;95165.84;4962347;28;20503;-78
2021/10/15 07:01:02;;;;;;;0.43;0.38;;;;;;;5.62;100.00;95159.75;4947603;28;20419;-78
2021/10/15 07:03:28;;;;;;;1.90;0.15;;;;;;;5.70;100.00;95161.66;4963627;28;20019;-77
2021/10/15 07:05:53;;;;;;;0.30;0.30;;;;;;;5.89;100.00;95161.66;4947356;28;20030;-78
2021/10/15 07:08:18;;;;;;;0.20;0.10;;;;;;;5.88;100.00;95144.63;4927365;28;20078;-77
2021/10/15 07:10:44;;;;;;;0.15;0.10;;;;;;;5.81;100.00;95135.81;4939324;28;20496;-78
2021/10/15 07:13:13;;;;;;;0.10;0.10;;;;;;;5.73;100.00;95139.06;4940140;29;20035;-77
2021/10/15 07:15:39;;;;;;;0.53;0.13;;;;;;;5.83;100.00;95131.34;4938712;28;20031;-78
2021/10/15 07:18:05;;;;;;;0.40;0.13;;;;;;;5.90;100.00;95141.91;4941397;28;20110;-78
2021/10/15 07:20:30;;;;;;;0.63;0.05;;;;;;;5.65;100.00;95120.94;4955258;28;20034;-78
2021/10/15 07:22:56;;;;;;;0.10;0.10;;;;;;;5.45;100.00;95067.19;4941293;28;20023;-78
2021/10/15 07:25:21;;;;;;;0.25;0.22;;;;;;;6.11;100.00;95150.25;4926046;28;20106;-79
2021/10/15 07:27:47;;;;;;;6.15;0.20;;;;;;;6.21;100.00;95141.59;4953700;28;20075;-80
2021/10/15 07:30:12;;;;;;;0.15;0.10;;;;;;;6.26;100.00;95151.47;4942613;28;20034;-80
2021/10/15 07:32:38;;;;;;;0.82;0.20;;;;;;;6.41;100.00;95154.38;4926118;28;20121;-77
2021/10/15 07:35:04;;;;;;;0.32;0.30;;;;;;;6.30;100.00;95135.59;4952580;28;20039;-78
2021/10/15 07:37:30;;;;;;;2.35;0.70;;;;;;;6.21;100.00;95141.59;4927268;28;20543;-77
2021/10/15 07:39:55;;;;;;;0.98;0.40;;;;;;;5.97;100.00;95118.13;4939905;28;20026;-78
2021/10/15 07:42:21;;;;;;;2.97;2.08;;;;;;;6.19;100.00;95133.22;4919648;29;20053;-77
2021/10/15 07:44:46;;;;;;;13.45;6.95;;;;;;;6.06;100.00;95112.13;4901710;29;20031;-77
2021/10/15 07:47:11;;;;;;;23.23;12.80;;;;;;;6.19;100.00;95102.34;4916183;29;20477;-77
2021/10/15 07:49:40;;;;;;;5.38;3.53;;;;;;;6.24;100.00;95107.88;4919561;29;20063;-78
2021/10/15 07:52:06;;;;;;;5.35;4.25;;;;;;;6.24;100.00;95102.72;4901303;29;20092;-80
2021/10/15 07:54:32;;;;;;;2.92;2.63;;;;;;;6.44;100.00;95108.63;4915225;29;20032;-80
2021/10/15 07:56:58;;;;;;;9.02;6.82;;;;;;;6.26;100.00;95100.03;4919324;29;20163;-78
2021/10/15 07:59:24;;;;;;;9.52;8.52;;;;;;;6.02;100.00;95084.25;4900352;29;20035;-77
2021/10/15 08:01:49;;;;;;;12.85;11.40;;;;;;;6.16;100.00;95104.41;4917755;28;20070;-78
2021/10/15 08:04:15;;;;;;;2.67;2.47;;;;;;;6.12;100.00;95111.56;4930613;28;20031;-77
2021/10/15 08:06:40;;;;;;;3.50;3.20;;;;;;;6.31;100.00;95095.25;4911549;28;20066;-78
2021/10/15 08:09:06;;;;;;;0.68;0.60;;;;;;;6.51;100.00;95081.38;4913654;29;20030;-78
2021/10/15 08:11:31;;;;;;;0.43;0.43;;;;;;;6.80;100.00;95071.75;4945388;28;20033;-79
2021/10/15 08:13:57;;;;;;;0.50;0.50;;;;;;;6.57;100.00;95060.22;4944544;29;20027;-80
2021/10/15 08:16:23;;;;;;;0.70;0.50;;;;;;;6.60;100.00;95044.50;4949796;28;20066;-81
2021/10/15 08:18:49;;;;;;;1.52;1.42;;;;;;;6.66;100.00;95041.34;4946902;29;20042;-81
2021/10/15 08:21:15;;;;;;;1.10;1.00;;;;;;;6.86;100.00;95034.31;4944155;29;20020;-81
2021/10/15 08:23:43;;;;;;;0.98;0.90;;;;;;;6.61;100.00;95030.69;4917840;29;20035;-79
2021/10/15 08:26:09;;;;;;;1.42;0.90;;;;;;;6.54;100.00;95015.97;4955270;29;20027;-81
2021/10/15 08:28:34;;;;;;;8.27;7.47;;;;;;;6.88;100.00;95038.34;4929440;28;20039;-82
2021/10/15 08:31:01;;;;;;;2.78;2.58;;;;;;;7.02;100.00;95005.34;4964279;28;20066;-80
2021/10/15 08:36:02;;;;;;;2.80;2.13;;;;;;;6.32;100.00;94927.94;5017448;23;20055;-80
2021/10/15 08:38:27;;;;;;;2.35;2.10;;;;;;;6.22;100.00;94880.13;4979839;28;20011;-81
2021/10/15 08:40:53;;;;;;;0.60;0.50;;;;;;;5.93;100.00;94879.50;4968219;28;20079;-81
2021/10/15 08:43:18;;;;;;;2.13;1.63;;;;;;;6.33;100.00;94897.91;4986582;28;20037;-80
2021/10/15 08:53:29;;;;;;;1.60;1.27;;;;;;;6.99;100.00;94894.94;5935220;23;20061;-79
2021/10/15 08:55:55;;;;;;;0.98;0.80;;;;;;;6.66;100.00;94840.66;4999447;28;20047;-82
2021/10/15 08:58:21;;;;;;;2.20;1.23;;;;;;;7.02;100.00;94884.34;4999204;28;20023;-80
2021/10/15 09:00:46;;;;;;;1.90;1.80;;;;;;;6.66;100.00;94844.97;4995762;28;20058;-82
2021/10/15 09:03:15;;;;;;;2.70;2.50;;;;;;;7.46;100.00;94950.28;5631247;23;20050;-80
2021/10/15 09:05:43;;;;;;;1.90;1.80;;;;;;;6.53;100.00;94827.38;5036897;28;20029;-80
2021/10/15 09:08:09;;;;;;;4.05;3.65;;;;;;;6.79;100.00;94871.94;5015531;28;20041;-80
2021/10/15 09:10:34;;;;;;;1.30;1.20;;;;;;;6.52;100.00;94873.84;4979891;28;20038;-80
2021/10/15 09:13:17;;;;;;;1.05;0.60;;;;;;;6.77;100.00;94903.94;5000727;28;20058;-80
2021/10/15 09:15:43;;;;;;;1.00;0.70;;;;;;;6.62;100.00;94892.53;4996124;28;20022;-79
2021/10/15 09:18:29;;;;;;;0.43;0.40;;;;;;;6.42;100.00;94861.03;4991264;28;20025;-80
2021/10/15 09:20:55;;;;;;;2.38;2.17;;;;;;;6.46;100.00;94864.91;5011630;28;20029;-80
2021/10/15 09:23:20;;;;;;;3.97;2.97;;;;;;;6.56;100.00;94888.00;4982234;28;20034;-80
2021/10/15 09:25:46;;;;;;;2.80;2.60;;;;;;;6.43;100.00;94865.22;5003412;28;20039;-81
2021/10/15 09:28:19;;;;;;;1.55;1.30;;;;;;;7.15;100.00;94964.56;5024012;28;20009;-81
2021/10/15 09:30:47;;;;;;;1.33;1.08;;;;;;;6.71;100.00;94853.84;4988830;28;20101;-80
2021/10/15 09:33:13;;;;;;;2.17;1.88;;;;;;;6.78;100.00;94901.22;4994807;28;20030;-76
2021/10/15 09:35:39;;;;;;;9.25;7.38;;;;;;;7.45;100.00;95002.75;4985006;28;20034;-77
2021/10/15 09:38:06;;;;;;;5.60;3.78;;;;;;;7.32;100.00;94979.19;4976327;28;20030;-77
2021/10/15 09:40:40;;;;;;;3.95;3.53;;;;;;;7.16;100.00;94914.69;4988687;28;20037;-80
2021/10/15 09:43:07;;;;;;;4.38;3.97;;;;;;;7.53;100.00;94995.09;4993344;28;19999;-79
2021/10/15 09:45:41;;;;;;;2.38;2.17;;;;;;;6.59;100.00;94903.13;4990426;28;20497;-77
2021/10/15 09:48:36;;;;;;;3.00;2.80;;;;;;;6.89;100.00;94937.03;5000015;28;20030;-78
2021/10/15 09:51:22;;;;;;;4.50;4.05;;;;;;;7.26;100.00;94956.59;4999470;28;20033;-78
2021/10/15 09:54:15;;;;;;;6.78;6.15;;;;;;;7.77;100.00;95022.81;5020857;28;20036;-80
2021/10/15 09:56:58;;;;;;;28.95;15.73;;;;;;;7.77;100.00;95023.59;5032002;28;20037;-78
2021/10/15 09:59:43;;;;;;;28.92;16.17;;;;;;;7.37;100.00;94944.28;5602834;23;20018;-78
2021/10/15 10:02:18;;;;;;;18.65;12.35;;;;;;;6.87;100.00;94877.13;4983687;23;20015;-79
2021/10/15 10:04:50;;;;;;;19.63;11.50;;;;;;;7.82;100.00;95008.50;4958073;29;20094;-78
2021/10/15 10:07:38;;;;;;;6.75;4.97;;;;;;;7.93;100.00;94997.91;4946692;29;20085;-78
2021/10/15 10:10:05;;;;;;;4.03;3.63;;;;;;;7.62;100.00;94916.88;4958263;29;20048;-77
2021/10/15 10:12:32;;;;;;;2.47;2.28;;;;;;;7.68;100.00;94923.19;4935828;29;20031;-76
2021/10/15 10:14:58;;;;;;;6.68;1.13;;;;;;;8.04;100.00;94980.56;4938522;29;20078;-76
2021/10/15 10:17:25;;;;;;;4.20;0.70;;;;;;;7.57;100.00;94901.09;4954564;28;20031;-79
2021/10/15 10:19:53;;;;;;;0.65;0.65;;;;;;;7.84;100.00;94946.47;4947338;28;20026;-79
2021/10/15 10:22:19;;;;;;;0.52;0.52;;;;;;;8.00;100.00;94962.00;4933223;28;20037;-79
2021/10/15 10:24:49;;;;;;;0.80;0.50;;;;;;;7.45;100.00;94879.09;4943333;29;20020;-78
2021/10/15 10:27:25;;;;;;;1.15;0.70;;;;;;;7.28;100.00;94843.94;4915417;29;20035;-78
2021/10/15 10:29:54;;;;;;;1.55;1.00;;;;;;;7.25;100.00;94836.53;4927179;29;20051;-77
2021/10/15 10:32:19;;;;;;;0.60;0.60;;;;;;;7.35;100.00;94874.06;4925105;28;20094;-78
2021/10/15 10:34:46;;;;;;;0.52;0.52;;;;;;;7.62;100.00;94900.59;4921796;28;20485;-78
2021/10/15 10:37:12;;;;;;;0.68;0.50;;;;;;;7.93;100.00;94938.59;4956689;28;20102;-76
2021/10/15 10:39:38;;;;;;;0.95;0.50;;;;;;;7.79;100.00;94923.75;4939004;28;20073;-79
2021/10/15 10:42:18;;;;;;;1.58;0.60;;;;;;;7.98;100.00;94945.88;4939567;28;20035;-79
2021/10/15 10:44:49;;;;;;;0.65;0.45;;;;;;;8.00;100.00;94925.09;4955328;28;20500;-79
2021/10/15 10:47:21;;;;;;;0.80;0.57;;;;;;;7.96;100.00;94940.09;4973301;28;20029;-75
2021/10/15 10:50:06;;;;;;;0.90;0.50;;;;;;;8.16;100.00;94932.88;4954709;28;20106;-75
2021/10/15 10:52:47;;;;;;;0.50;0.50;;;;;;;8.27;100.00;94906.81;4970948;28;20031;-75
2021/10/15 10:55:39;;;;;;;0.60;0.47;;;;;;;8.05;100.00;94909.97;4925883;28;20129;-74
2021/10/15 10:58:37;;;;;;;0.40;0.30;;;;;;;8.11;100.00;94914.50;4920331;29;20420;-75
2021/10/15 11:01:26;;;;;;;0.82;0.30;;;;;;;8.19;100.00;94922.25;4891274;29;20540;-74
2021/10/15 11:03:52;;;;;;;2.53;0.50;;;;;;;8.23;100.00;94919.22;4948422;28;20516;-75
2021/10/15 11:06:18;;;;;;;0.60;0.30;;;;;;;8.16;100.00;94901.94;4938997;28;20023;-75
2021/10/15 11:08:43;;;;;;;0.30;0.30;;;;;;;8.28;100.00;94887.84;4917913;28;20435;-75
2021/10/15 11:11:24;;;;;;;1.10;0.40;;;;;;;8.39;100.00;94884.94;4932350;29;20066;-74
2021/10/15 11:13:49;;;;;;;0.50;0.50;;;;;;;8.37;100.00;94868.81;4933297;29;20023;-75
2021/10/15 11:16:22;;;;;;;0.25;0.25;;;;;;;8.41;100.00;94865.75;4918780;29;20074;-75
2021/10/15 11:18:47;;;;;;;1.95;0.55;;;;;;;8.51;100.00;94868.16;4917275;28;20093;-75
2021/10/15 11:21:13;;;;;;;0.70;0.40;;;;;;;8.35;100.00;94879.28;4936923;28;20027;-75
2021/10/15 11:23:39;;;;;;;0.60;0.50;;;;;;;8.38;100.00;94891.06;4951495;28;20038;-75
2021/10/15 11:26:05;;;;;;;0.80;0.50;;;;;;;8.27;100.00;94860.38;4928557;29;20480;-75
2021/10/15 11:28:31;;;;;;;0.73;0.35;;;;;;;8.21;100.00;94869.56;4931966;29;20140;-75
2021/10/15 11:30:57;;;;;;;0.30;0.30;;;;;;;8.38;100.00;94883.34;4948145;28;20023;-75
2021/10/15 11:33:25;;;;;;;0.35;0.35;;;;;;;8.40;100.00;94889.13;4932739;29;20027;-75
2021/10/15 11:35:51;;;;;;;0.43;0.30;;;;;;;8.39;100.00;94883.16;4916958;29;20027;-75
2021/10/15 11:38:20;;;;;;;1.02;0.30;;;;;;;8.32;100.00;94877.00;4950744;29;20464;-75
2021/10/15 11:40:50;;;;;;;0.30;0.30;;;;;;;8.17;100.00;94877.75;4945772;29;20019;-75
2021/10/15 11:43:15;;;;;;;;;;;;;;;8.16;100.00;94870.97;4937405;29;20102;-75
2021/10/15 11:45:43;;;;;;;0.25;0.20;;;;;;;8.07;100.00;94835.81;4944811;29;20340;-75
2021/10/15 11:48:17;;;;;;;0.10;0.10;;;;;;;8.09;100.00;94849.38;4930787;29;20329;-76
2021/10/15 11:50:46;;;;;;;0.50;0.50;;;;;;;8.14;100.00;94860.03;4912141;29;20057;-75
2021/10/15 11:53:14;;;;;;;0.93;0.80;;;;;;;8.13;100.00;94861.78;4912357;28;20098;-75
2021/10/15 11:55:40;;;;;;;0.70;0.70;;;;;;;8.06;100.00;94855.66;4935342;28;20412;-76
2021/10/15 11:58:25;;;;;;;0.20;0.20;;;;;;;7.97;100.00;94851.44;4917638;29;20505;-79
2021/10/15 12:01:01;;;;;;;0.45;0.30;;;;;;;7.91;100.00;94842.56;4906956;29;20452;-75
2021/10/15 12:03:50;;;;;;;2.60;0.32;;;;;;;7.96;100.00;94832.56;4907482;29;20035;-76
2021/10/15 12:06:28;;;;;;;0.35;0.20;;;;;;;7.94;100.00;94825.97;4920078;29;20028;-76
2021/10/15 12:08:57;;;;;;;0.10;0.10;;;;;;;8.01;100.00;94832.13;4921791;29;20049;-76
2021/10/15 12:11:29;;;;;;;0.20;0.20;;;;;;;8.17;100.00;94829.56;4943868;29;20053;-75
2021/10/15 12:13:55;;;;;;;0.10;0.10;;;;;;;7.84;100.00;94792.59;4902536;29;20039;-77
2021/10/15 12:16:20;;;;;;;0.10;0.10;;;;;;;8.19;100.00;94826.81;4917090;28;20132;-75
2021/10/15 12:18:54;;;;;;;0.13;0.10;;;;;;;8.29;100.00;94828.31;4958088;28;20077;-76
2021/10/15 12:21:20;;;;;;;0.20;0.20;;;;;;;8.15;100.00;94823.78;4944667;28;20040;-76
2021/10/15 12:23:52;;;;;;;0.30;0.30;;;;;;;8.30;100.00;94831.72;4910115;28;20601;-76
2021/10/15 12:26:19;;;;;;;0.20;0.10;;;;;;;8.06;100.00;94793.75;4919530;29;20031;-77
2021/10/15 12:28:44;;;;;;;0.30;0.30;;;;;;;8.15;100.00;94834.09;4920603;28;20034;-76
2021/10/15 12:31:30;;;;;;;0.50;0.50;;;;;;;7.89;100.00;94802.44;4909957;29;20023;-76
2021/10/15 12:34:11;;;;;;;0.90;0.65;;;;;;;7.95;100.00;94820.69;4937556;28;20428;-76
2021/10/15 12:36:38;;;;;;;0.93;0.70;;;;;;;7.86;100.00;94813.88;4918169;29;20024;-76
2021/10/15 12:39:24;;;;;;;0.50;0.50;;;;;;;7.94;100.00;94815.66;4916342;29;20093;-76
2021/10/15 12:41:51;;;;;;;0.63;0.50;;;;;;;7.94;100.00;94815.66;4930473;29;20066;-76
2021/10/15 12:44:30;;;;;;;0.88;0.70;;;;;;;7.95;100.00;94784.56;4949550;29;20031;-76
2021/10/15 12:47:03;;;;;;;1.10;0.77;;;;;;;7.98;100.00;94786.03;4962112;28;20042;-76
2021/10/15 12:49:30;;;;;;;1.40;1.30;;;;;;;8.09;100.00;94816.66;4945137;28;20059;-76
2021/10/15 12:51:57;;;;;;;8.52;7.65;;;;;;;8.17;100.00;94826.19;4913140;29;20020;-76
2021/10/15 12:54:42;;;;;;;3.30;3.00;;;;;;;7.89;100.00;94797.28;4950120;28;20026;-76
2021/10/15 12:57:15;;;;;;;2.90;2.20;;;;;;;8.13;100.00;94835.19;4935357;28;20057;-76
2021/10/15 12:59:41;;;;;;;2.22;2.03;;;;;;;8.04;100.00;94831.00;4914744;29;20189;-76
2021/10/15 13:02:07;;;;;;;5.18;4.25;;;;;;;8.10;100.00;94854.38;4931794;28;20126;-77
2021/10/15 13:04:37;;;;;;;6.18;5.13;;;;;;;8.06;100.00;94865.97;4949963;29;20027;-77
2021/10/15 13:07:03;;;;;;;7.82;6.80;;;;;;;7.92;100.00;94840.81;4917263;29;20031;-75
2021/10/15 13:09:31;;;;;;;6.30;5.75;;;;;;;8.12;100.00;94869.72;4916593;29;20023;-76
2021/10/15 13:11:58;;;;;;;6.88;6.18;;;;;;;8.18;100.00;94869.06;4948709;29;20038;-76
2021/10/15 13:14:24;;;;;;;12.95;10.90;;;;;;;8.04;100.00;94844.69;4949345;29;20031;-77
2021/10/15 13:16:49;;;;;;;16.48;14.70;;;;;;;8.21;100.00;94842.97;4931469;29;20023;-76
2021/10/15 13:19:15;;;;;;;19.00;17.23;;;;;;;8.48;100.00;94855.59;4949636;29;20046;-76
2021/10/15 13:21:40;;;;;;;18.73;16.92;;;;;;;8.48;100.00;94860.75;4931693;29;20524;-76
2021/10/15 13:24:06;;;;;;;19.90;17.88;;;;;;;8.14;100.00;94849.72;4949549;29;20470;-76
2021/10/15 13:26:32;;;;;;;17.05;15.52;;;;;;;8.19;100.00;94852.59;4949110;29;20031;-76
2021/10/15 13:28:57;;;;;;;18.00;16.40;;;;;;;8.11;100.00;94865.50;4948261;29;20627;-77
2021/10/15 13:31:23;;;;;;;17.17;15.57;;;;;;;8.05;100.00;94868.72;4914759;29;20216;-76
2021/10/15 13:33:48;;;;;;;15.50;14.10;;;;;;;8.12;100.00;94869.72;4925324;29;20600;-77
2021/10/15 13:36:14;;;;;;;12.05;11.05;;;;;;;7.99;100.00;94857.25;4919982;28;20089;-78
2021/10/15 13:38:45;;;;;;;12.98;11.95;;;;;;;8.09;100.00;94860.50;4940134;28;20082;-76
2021/10/15 13:41:15;;;;;;;15.48;14.18;;;;;;;7.91;100.00;94860.63;4910769;28;20034;-77
2021/10/15 13:51:34;;;;;;;8.40;7.70;;;;;;;7.61;100.00;94858.56;4941684;28;20127;-77
2021/10/15 13:54:00;;;;;;;7.70;7.20;;;;;;;7.74;100.00;94850.41;4923625;28;20039;-77
2021/10/15 13:56:25;;;;;;;7.95;7.28;;;;;;;7.66;100.00;94851.19;4922438;28;20421;-76
2021/10/15 13:58:52;;;;;;;9.60;8.88;;;;;;;7.80;100.00;94848.00;4940239;28;20023;-76
2021/10/15 14:01:32;;;;;;;7.32;6.82;;;;;;;7.80;100.00;94853.16;4942634;28;20065;-76
2021/10/15 14:06:25;;;;;;;9.70;9.00;;;;;;;7.57;100.00;94867.59;4954375;28;20427;-76
2021/10/15 14:08:51;;;;;;;10.25;9.35;;;;;;;7.53;100.00;94852.59;4900991;29;20039;-76
2021/10/15 14:11:18;;;;;;;7.90;7.30;;;;;;;7.50;100.00;94873.50;4930402;29;20063;-76
2021/10/15 14:13:43;;;;;;;6.50;6.00;;;;;;;7.53;100.00;94884.31;4913920;29;20114;-77
2021/10/15 14:16:08;;;;;;;3.13;2.83;;;;;;;7.36;100.00;94865.38;4915050;29;20118;-77
2021/10/15 14:18:34;;;;;;;5.07;4.68;;;;;;;7.33;100.00;94881.16;4931772;28;20405;-76
2021/10/15 14:21:00;;;;;;;4.75;4.35;;;;;;;7.47;100.00;94887.50;4921821;28;20287;-77
2021/10/15 14:23:26;;;;;;;3.30;3.00;;;;;;;7.36;100.00;94857.66;4955833;28;20543;-76
2021/10/15 14:25:52;;;;;;;3.95;3.67;;;;;;;7.66;100.00;94879.53;4915933;29;20114;-76
2021/10/15 14:28:17;;;;;;;4.75;4.32;;;;;;;7.57;100.00;94866.78;4930429;29;20027;-76
2021/10/15 14:30:42;;;;;;;5.72;5.32;;;;;;;7.25;100.00;94828.78;4914482;29;20041;-77
2021/10/15 14:33:08;;;;;;;7.45;6.80;;;;;;;7.58;100.00;94855.50;4931102;29;20031;-76
2021/10/15 14:35:35;;;;;;;8.63;7.82;;;;;;;7.64;100.00;94865.97;4929473;29;20042;-76
2021/10/15 14:38:01;;;;;;;5.75;5.25;;;;;;;7.55;100.00;94860.94;4931409;29;20066;-76
2021/10/15 14:40:26;;;;;;;5.20;4.70;;;;;;;7.52;100.00;94856.09;4913650;29;20035;-78
2021/10/15 14:42:52;;;;;;;3.92;3.63;;;;;;;7.61;100.00;94863.72;4948848;28;20390;-77
2021/10/15 14:45:17;;;;;;;6.18;5.68;;;;;;;7.53;100.00;94858.53;4931047;29;20028;-77
2021/10/15 14:47:42;;;;;;;3.25;3.05;;;;;;;7.55;100.00;94859.19;4915610;29;20040;-77
2021/10/15 14:50:08;;;;;;;3.33;3.10;;;;;;;7.55;100.00;94864.34;4949029;29;20095;-77
2021/10/15 14:52:34;;;;;;;4.03;3.72;;;;;;;7.59;100.00;94873.38;4914106;29;20031;-78
2021/10/15 14:54:59;;;;;;;5.53;4.97;;;;;;;7.73;100.00;94882.31;4933043;29;20031;-77
2021/10/15 14:57:25;;;;;;;8.00;7.30;;;;;;;7.65;100.00;94872.75;4930852;29;20401;-77
2021/10/15 14:59:52;;;;;;;23.45;21.02;;;;;;;7.58;100.00;94865.81;4910543;28;20126;-78
2021/10/15 15:02:17;;;;;;;18.85;16.92;;;;;;;7.52;100.00;94882.69;4964429;28;20049;-78
2021/10/15 15:04:44;;;;;;;15.05;13.63;;;;;;;7.47;100.00;94897.81;4923748;28;20030;-78
2021/10/15 15:07:09;;;;;;;12.40;11.30;;;;;;;7.61;100.00;94899.00;4947887;28;20110;-77
2021/10/15 15:09:35;;;;;;;11.57;10.68;;;;;;;7.61;100.00;94901.59;4919155;29;20062;-78
2021/10/15 15:12:00;;;;;;;16.58;15.00;;;;;;;7.60;100.00;94921.41;4919244;29;20023;-78
2021/10/15 15:14:26;;;;;;;17.30;15.60;;;;;;;7.59;100.00;94918.97;4912818;29;20034;-78
2021/10/15 15:16:51;;;;;;;13.50;12.25;;;;;;;7.58;100.00;94907.06;4934710;29;20035;-77
2021/10/15 15:19:17;;;;;;;14.63;13.18;;;;;;;7.71;100.00;94933.19;4951534;28;20090;-78
2021/10/15 15:21:46;;;;;;;13.55;12.05;;;;;;;7.49;100.00;94913.91;4945930;29;20027;-77
2021/10/15 15:24:12;;;;;;;16.70;15.15;;;;;;;7.61;100.00;94942.81;4932941;29;20035;-77
2021/10/15 15:26:38;;;;;;;16.20;14.52;;;;;;;7.61;100.00;94932.50;4932718;29;20397;-77
2021/10/15 15:29:03;;;;;;;14.85;13.48;;;;;;;7.49;100.00;94910.53;4917541;28;20046;-78
2021/10/15 15:31:29;;;;;;;16.85;15.23;;;;;;;7.67;100.00;94924.16;4934309;29;20074;-77
2021/10/15 15:33:54;;;;;;;19.13;17.17;;;;;;;7.74;100.00;94925.94;4918258;29;20130;-77
2021/10/15 15:36:20;;;;;;;17.38;15.88;;;;;;;7.51;100.00;94896.56;4935651;29;20031;-77
2021/10/15 15:38:46;;;;;;;11.35;10.45;;;;;;;7.72;100.00;94917.59;4902517;28;20125;-78
2021/10/15 15:41:11;;;;;;;12.23;11.15;;;;;;;7.59;100.00;94911.22;4940620;28;20078;-78
2021/10/15 15:43:37;;;;;;;7.18;6.57;;;;;;;7.65;100.00;94916.56;4918062;28;20127;-78
2021/10/15 15:46:03;;;;;;;7.25;6.65;;;;;;;7.56;100.00;94922.66;4919750;28;20101;-77
2021/10/15 15:48:35;;;;;;;6.40;5.90;;;;;;;7.50;100.00;94904.41;4908480;28;20035;-78
2021/10/15 15:51:00;;;;;;;9.05;8.35;;;;;;;7.49;100.00;94916.50;4911673;28;20074;-77
2021/10/15 15:53:26;;;;;;;19.92;15.55;;;;;;;7.27;100.00;94909.28;4928116;28;20050;-77
2021/10/15 15:55:53;;;;;;;14.65;12.93;;;;;;;7.31;100.00;94951.81;4925753;28;20027;-77
2021/10/15 15:58:18;;;;;;;13.68;12.48;;;;;;;7.38;100.00;94969.06;4935754;28;20027;-77
2021/10/15 16:00:44;;;;;;;8.15;7.45;;;;;;;7.61;100.00;94995.16;4940280;28;20062;-76
2021/10/15 16:03:10;;;;;;;101.15;36.30;;;;;;;7.31;100.00;94969.84;4939426;28;20492;-78
2021/10/15 16:05:36;;;;;;;92.32;32.67;;;;;;;7.58;100.00;95002.41;4929736;28;20050;-77
2021/10/15 16:08:01;;;;;;;44.28;16.35;;;;;;;7.52;100.00;95010.69;4920383;28;20041;-77
2021/10/15 16:10:27;;;;;;;60.08;22.20;;;;;;;7.63;100.00;95003.56;4945833;28;20054;-77
2021/10/15 16:12:53;;;;;;;34.38;15.38;;;;;;;7.63;100.00;95000.97;4924850;29;20071;-77
2021/10/15 16:15:18;;;;;;;37.67;14.25;;;;;;;7.57;100.00;94999.00;4913654;28;20488;-77
2021/10/15 16:17:44;;;;;;;11.70;7.00;;;;;;;7.63;100.00;94988.09;4939625;29;20043;-78
2021/10/15 16:20:09;;;;;;;6.38;5.32;;;;;;;7.71;100.00;94998.44;4915965;29;20126;-77
